Terminal Aerodrome Forecast
Issued by NWS Memphis, TN

Home | Current Version | Previous Version | Text Only | Print | Product List | Glossary On
Versions: 1 2 3 4 5 6 7 8 9 10 11 12 13 14 15 16 17 18 19 20 21 22 23 24 25 26 27 28 29 30 31
159
FTUS44 KMEG 211739
TAFMEM
TAF
KMEM 211739Z 2118/2218 17007KT P6SM FEW050 SCT200
     FM220500 20007KT 6SM -SHRA VCTS SCT010 BKN030CB
      TEMPO 2205/2206 VRB15KT 1SM +TSRA BKN008 BKN015CB
     FM220700 21006KT 4SM BR VCSH OVC004
     FM221200 22009KT P6SM VCSH SCT005 BKN040=

USA.gov is the U.S. government's official web portal to all federal, state and local government web resources and services.